sensor_id;sensor_type;location;lat;lon;timestamp;pressure;altitude;pressure_sealevel;temperature;humidity
62059;BME280;48017;51.064;7.014;2022-08-03T00:02:19;100858.47;;;20.66;72.77
62059;BME280;48017;51.064;7.014;2022-08-03T00:04:45;100858.88;;;20.33;74.62
62059;BME280;48017;51.064;7.014;2022-08-03T00:07:10;100859.13;;;20.38;74.50
62059;BME280;48017;51.064;7.014;2022-08-03T00:09:36;100854.47;;;20.62;73.98
62059;BME280;48017;51.064;7.014;2022-08-03T00:12:01;100855.59;;;20.53;74.15
62059;BME280;48017;51.064;7.014;2022-08-03T00:14:27;100851.72;;;20.55;73.91
62059;BME280;48017;51.064;7.014;2022-08-03T00:16:52;100850.31;;;20.59;74.36
62059;BME280;48017;51.064;7.014;2022-08-03T00:19:17;100853.31;;;20.86;73.22
62059;BME280;48017;51.064;7.014;2022-08-03T00:21:43;100844.50;;;20.77;73.48
62059;BME280;48017;51.064;7.014;2022-08-03T00:24:08;100847.59;;;20.95;72.49
62059;BME280;48017;51.064;7.014;2022-08-03T00:26:33;100847.09;;;21.07;71.96
62059;BME280;48017;51.064;7.014;2022-08-03T00:28:59;100852.34;;;21.15;71.46
62059;BME280;48017;51.064;7.014;2022-08-03T00:31:24;100847.22;;;20.98;71.76
62059;BME280;48017;51.064;7.014;2022-08-03T00:33:49;100847.69;;;20.66;73.33
62059;BME280;48017;51.064;7.014;2022-08-03T00:36:15;100845.25;;;20.71;73.47
62059;BME280;48017;51.064;7.014;2022-08-03T00:38:42;100843.19;;;20.73;73.44
62059;BME280;48017;51.064;7.014;2022-08-03T00:41:08;100842.50;;;20.64;73.58
62059;BME280;48017;51.064;7.014;2022-08-03T00:43:33;100843.28;;;20.44;74.61
62059;BME280;48017;51.064;7.014;2022-08-03T00:45:59;100837.34;;;20.33;74.83
62059;BME280;48017;51.064;7.014;2022-08-03T00:48:24;100837.50;;;20.32;75.29
62059;BME280;48017;51.064;7.014;2022-08-03T00:50:50;100845.22;;;20.35;75.20
62059;BME280;48017;51.064;7.014;2022-08-03T00:53:15;100839.84;;;20.35;75.39
62059;BME280;48017;51.064;7.014;2022-08-03T00:55:41;100830.09;;;20.19;76.06
62059;BME280;48017;51.064;7.014;2022-08-03T00:58:07;100841.25;;;20.16;76.13
62059;BME280;48017;51.064;7.014;2022-08-03T01:00:38;100830.47;;;20.16;76.16
62059;BME280;48017;51.064;7.014;2022-08-03T01:03:05;100835.00;;;20.30;75.39
62059;BME280;48017;51.064;7.014;2022-08-03T01:13:33;100823.47;;;20.22;75.99
62059;BME280;48017;51.064;7.014;2022-08-03T01:16:06;100822.19;;;20.18;76.02
62059;BME280;48017;51.064;7.014;2022-08-03T01:18:54;100819.41;;;20.26;75.75
62059;BME280;48017;51.064;7.014;2022-08-03T01:21:36;100831.56;;;20.36;75.47
62059;BME280;48017;51.064;7.014;2022-08-03T01:27:08;100831.88;;;19.82;78.12
62059;BME280;48017;51.064;7.014;2022-08-03T01:32:15;100824.72;;;19.90;77.48
62059;BME280;48017;51.064;7.014;2022-08-03T01:34:45;100829.63;;;19.86;77.69
62059;BME280;48017;51.064;7.014;2022-08-03T01:37:15;100824.22;;;19.71;78.38
62059;BME280;48017;51.064;7.014;2022-08-03T01:39:44;100826.75;;;19.88;77.98
62059;BME280;48017;51.064;7.014;2022-08-03T01:42:10;100832.88;;;19.81;77.84
62059;BME280;48017;51.064;7.014;2022-08-03T01:44:39;100822.22;;;19.73;78.47
62059;BME280;48017;51.064;7.014;2022-08-03T01:47:06;100825.34;;;19.77;78.10
62059;BME280;48017;51.064;7.014;2022-08-03T01:49:37;100825.53;;;19.75;78.10
62059;BME280;48017;51.064;7.014;2022-08-03T01:52:04;100817.16;;;19.55;79.37
62059;BME280;48017;51.064;7.014;2022-08-03T01:54:35;100826.19;;;19.63;79.12
62059;BME280;48017;51.064;7.014;2022-08-03T01:57:02;100820.53;;;19.72;78.50
62059;BME280;48017;51.064;7.014;2022-08-03T01:59:29;100817.81;;;19.58;78.69
62059;BME280;48017;51.064;7.014;2022-08-03T02:01:57;100816.56;;;19.45;79.21
62059;BME280;48017;51.064;7.014;2022-08-03T02:04:24;100814.59;;;19.62;78.58
62059;BME280;48017;51.064;7.014;2022-08-03T02:06:52;100809.88;;;19.64;78.63
62059;BME280;48017;51.064;7.014;2022-08-03T02:09:20;100813.63;;;19.55;78.68
62059;BME280;48017;51.064;7.014;2022-08-03T02:11:46;100822.00;;;19.37;80.03
62059;BME280;48017;51.064;7.014;2022-08-03T02:14:13;100813.78;;;19.16;80.72
62059;BME280;48017;51.064;7.014;2022-08-03T02:16:38;100817.63;;;19.21;80.67
62059;BME280;48017;51.064;7.014;2022-08-03T02:19:05;100813.56;;;19.40;79.81
62059;BME280;48017;51.064;7.014;2022-08-03T02:21:32;100819.22;;;19.68;78.55
62059;BME280;48017;51.064;7.014;2022-08-03T02:23:59;100813.91;;;19.60;78.74
62059;BME280;48017;51.064;7.014;2022-08-03T02:26:28;100814.22;;;19.65;78.47
62059;BME280;48017;51.064;7.014;2022-08-03T02:28:55;100809.25;;;19.54;78.74
62059;BME280;48017;51.064;7.014;2022-08-03T02:31:22;100805.41;;;19.56;78.81
62059;BME280;48017;51.064;7.014;2022-08-03T02:33:51;100798.47;;;19.39;79.35
62059;BME280;48017;51.064;7.014;2022-08-03T02:36:26;100806.53;;;19.39;79.50
62059;BME280;48017;51.064;7.014;2022-08-03T02:38:55;100806.31;;;19.26;80.63
62059;BME280;48017;51.064;7.014;2022-08-03T02:41:29;100807.28;;;19.33;79.50
62059;BME280;48017;51.064;7.014;2022-08-03T02:43:58;100802.34;;;19.37;79.63
62059;BME280;48017;51.064;7.014;2022-08-03T02:46:32;100804.97;;;19.45;79.10
62059;BME280;48017;51.064;7.014;2022-08-03T02:49:02;100806.28;;;19.49;78.89
62059;BME280;48017;51.064;7.014;2022-08-03T02:51:30;100808.44;;;19.53;78.41
62059;BME280;48017;51.064;7.014;2022-08-03T02:53:58;100802.28;;;19.45;78.96
62059;BME280;48017;51.064;7.014;2022-08-03T02:56:25;100802.81;;;19.25;79.73
62059;BME280;48017;51.064;7.014;2022-08-03T02:58:52;100799.03;;;19.35;79.19
62059;BME280;48017;51.064;7.014;2022-08-03T03:01:21;100803.56;;;19.34;79.45
62059;BME280;48017;51.064;7.014;2022-08-03T03:03:49;100803.31;;;19.44;78.65
62059;BME280;48017;51.064;7.014;2022-08-03T03:06:16;100803.25;;;19.52;77.98
62059;BME280;48017;51.064;7.014;2022-08-03T03:08:44;100802.53;;;19.58;77.83
62059;BME280;48017;51.064;7.014;2022-08-03T03:11:10;100796.97;;;19.37;78.69
62059;BME280;48017;51.064;7.014;2022-08-03T03:13:38;100800.03;;;19.34;78.62
62059;BME280;48017;51.064;7.014;2022-08-03T03:16:06;100800.75;;;19.27;79.03
62059;BME280;48017;51.064;7.014;2022-08-03T03:18:33;100799.66;;;19.37;78.38
62059;BME280;48017;51.064;7.014;2022-08-03T03:21:00;100798.56;;;19.08;79.60
62059;BME280;48017;51.064;7.014;2022-08-03T03:23:27;100807.22;;;19.18;79.21
62059;BME280;48017;51.064;7.014;2022-08-03T03:25:54;100811.28;;;19.14;79.11
62059;BME280;48017;51.064;7.014;2022-08-03T03:28:21;100812.91;;;19.23;79.01
62059;BME280;48017;51.064;7.014;2022-08-03T03:30:48;100813.00;;;19.30;78.58
62059;BME280;48017;51.064;7.014;2022-08-03T03:33:13;100809.72;;;19.43;77.68
62059;BME280;48017;51.064;7.014;2022-08-03T03:35:40;100809.03;;;19.41;77.85
62059;BME280;48017;51.064;7.014;2022-08-03T03:38:07;100804.50;;;19.41;77.80
62059;BME280;48017;51.064;7.014;2022-08-03T03:40:37;100803.56;;;19.34;78.28
62059;BME280;48017;51.064;7.014;2022-08-03T03:43:06;100805.81;;;19.45;77.82
62059;BME280;48017;51.064;7.014;2022-08-03T03:45:33;100807.09;;;19.49;77.22
62059;BME280;48017;51.064;7.014;2022-08-03T03:48:05;100812.22;;;19.44;77.50
62059;BME280;48017;51.064;7.014;2022-08-03T03:50:32;100811.53;;;19.05;79.32
62059;BME280;48017;51.064;7.014;2022-08-03T03:52:58;100802.75;;;18.88;80.17
62059;BME280;48017;51.064;7.014;2022-08-03T03:55:23;100812.09;;;18.69;81.15
62059;BME280;48017;51.064;7.014;2022-08-03T03:57:49;100806.28;;;18.57;82.12
62059;BME280;48017;51.064;7.014;2022-08-03T04:00:16;100810.22;;;18.78;81.78
62059;BME280;48017;51.064;7.014;2022-08-03T04:02:42;100806.03;;;18.75;81.60
62059;BME280;48017;51.064;7.014;2022-08-03T04:05:08;100813.31;;;18.66;82.42
62059;BME280;48017;51.064;7.014;2022-08-03T04:07:59;100807.94;;;18.58;82.29
62059;BME280;48017;51.064;7.014;2022-08-03T04:10:48;100816.81;;;18.67;82.70
62059;BME280;48017;51.064;7.014;2022-08-03T04:13:36;100816.00;;;18.58;82.84
62059;BME280;48017;51.064;7.014;2022-08-03T04:16:03;100814.97;;;18.59;82.95
62059;BME280;48017;51.064;7.014;2022-08-03T04:18:31;100812.84;;;18.55;83.03
62059;BME280;48017;51.064;7.014;2022-08-03T04:21:08;100819.13;;;18.39;84.09
62059;BME280;48017;51.064;7.014;2022-08-03T04:23:37;100817.75;;;18.51;83.69
62059;BME280;48017;51.064;7.014;2022-08-03T04:26:07;100820.44;;;18.51;83.52
62059;BME280;48017;51.064;7.014;2022-08-03T04:28:34;100822.88;;;18.61;82.96
62059;BME280;48017;51.064;7.014;2022-08-03T04:31:02;100819.09;;;18.47;83.35
62059;BME280;48017;51.064;7.014;2022-08-03T04:33:31;100820.44;;;18.51;83.46
62059;BME280;48017;51.064;7.014;2022-08-03T04:36:00;100820.19;;;18.61;82.66
62059;BME280;48017;51.064;7.014;2022-08-03T04:38:28;100823.63;;;18.78;81.81
62059;BME280;48017;51.064;7.014;2022-08-03T04:40:55;100827.75;;;18.65;82.43
62059;BME280;48017;51.064;7.014;2022-08-03T04:43:22;100828.19;;;18.77;81.68
62059;BME280;48017;51.064;7.014;2022-08-03T04:45:49;100829.94;;;18.62;82.30
62059;BME280;48017;51.064;7.014;2022-08-03T04:48:15;100834.06;;;18.81;82.09
62059;BME280;48017;51.064;7.014;2022-08-03T04:50:41;100837.63;;;18.73;81.89
62059;BME280;48017;51.064;7.014;2022-08-03T04:53:07;100837.72;;;18.80;81.71
62059;BME280;48017;51.064;7.014;2022-08-03T04:55:33;100836.78;;;18.95;81.02
62059;BME280;48017;51.064;7.014;2022-08-03T04:58:00;100841.31;;;18.95;80.99
62059;BME280;48017;51.064;7.014;2022-08-03T05:00:26;100841.22;;;19.11;80.34
62059;BME280;48017;51.064;7.014;2022-08-03T05:02:52;100839.41;;;19.26;79.67
62059;BME280;48017;51.064;7.014;2022-08-03T05:05:18;100844.41;;;19.29;78.80
62059;BME280;48017;51.064;7.014;2022-08-03T05:07:44;100840.97;;;19.21;79.28
62059;BME280;48017;51.064;7.014;2022-08-03T05:10:11;100852.22;;;19.02;80.29
62059;BME280;48017;51.064;7.014;2022-08-03T05:12:37;100842.53;;;19.15;80.25
62059;BME280;48017;51.064;7.014;2022-08-03T05:15:03;100842.56;;;19.30;79.30
62059;BME280;48017;51.064;7.014;2022-08-03T05:17:29;100848.66;;;19.47;78.87
62059;BME280;48017;51.064;7.014;2022-08-03T05:19:55;100837.16;;;19.53;78.22
62059;BME280;48017;51.064;7.014;2022-08-03T05:22:21;100844.53;;;19.59;78.16
62059;BME280;48017;51.064;7.014;2022-08-03T05:24:47;100843.72;;;19.73;77.98
62059;BME280;48017;51.064;7.014;2022-08-03T05:27:12;100847.16;;;19.67;78.36
62059;BME280;48017;51.064;7.014;2022-08-03T05:29:43;100847.63;;;19.48;78.61
62059;BME280;48017;51.064;7.014;2022-08-03T05:32:09;100848.75;;;19.53;78.73
62059;BME280;48017;51.064;7.014;2022-08-03T05:34:34;100842.84;;;19.58;78.93
62059;BME280;48017;51.064;7.014;2022-08-03T05:36:59;100848.16;;;19.66;78.03
62059;BME280;48017;51.064;7.014;2022-08-03T05:39:25;100854.22;;;19.83;78.02
62059;BME280;48017;51.064;7.014;2022-08-03T05:41:50;100850.63;;;20.05;77.08
62059;BME280;48017;51.064;7.014;2022-08-03T05:44:16;100854.78;;;20.08;76.36
62059;BME280;48017;51.064;7.014;2022-08-03T05:46:41;100850.50;;;19.99;76.33
62059;BME280;48017;51.064;7.014;2022-08-03T05:49:06;100847.56;;;20.23;76.02
62059;BME280;48017;51.064;7.014;2022-08-03T05:51:32;100848.09;;;20.33;75.09
62059;BME280;48017;51.064;7.014;2022-08-03T05:53:57;100847.16;;;20.56;74.31
62059;BME280;48017;51.064;7.014;2022-08-03T05:56:23;100844.44;;;20.41;74.63
62059;BME280;48017;51.064;7.014;2022-08-03T05:58:52;100856.34;;;20.61;72.99
62059;BME280;48017;51.064;7.014;2022-08-03T06:01:19;100846.66;;;20.67;73.26
62059;BME280;48017;51.064;7.014;2022-08-03T06:03:46;100850.00;;;20.69;72.92
62059;BME280;48017;51.064;7.014;2022-08-03T06:06:11;100852.34;;;20.93;72.36
62059;BME280;48017;51.064;7.014;2022-08-03T06:08:37;100847.16;;;21.13;70.40
62059;BME280;48017;51.064;7.014;2022-08-03T06:11:02;100849.94;;;21.41;68.59
62059;BME280;48017;51.064;7.014;2022-08-03T06:13:29;100853.22;;;21.37;68.19
62059;BME280;48017;51.064;7.014;2022-08-03T06:15:54;100850.91;;;21.62;65.82
62059;BME280;48017;51.064;7.014;2022-08-03T06:18:19;100854.91;;;21.44;65.14
62059;BME280;48017;51.064;7.014;2022-08-03T06:20:45;100847.75;;;21.30;65.00
62059;BME280;48017;51.064;7.014;2022-08-03T06:23:10;100851.94;;;21.61;64.41
62059;BME280;48017;51.064;7.014;2022-08-03T06:25:36;100856.38;;;21.68;64.28
62059;BME280;48017;51.064;7.014;2022-08-03T06:28:01;100859.41;;;22.14;63.60
62059;BME280;48017;51.064;7.014;2022-08-03T06:30:29;100858.34;;;22.50;61.94
62059;BME280;48017;51.064;7.014;2022-08-03T06:32:55;100851.50;;;22.61;61.51
62059;BME280;48017;51.064;7.014;2022-08-03T06:35:20;100860.41;;;22.48;62.30
62059;BME280;48017;51.064;7.014;2022-08-03T06:37:47;100859.66;;;22.74;61.27
62059;BME280;48017;51.064;7.014;2022-08-03T06:40:18;100860.44;;;22.61;61.74
62059;BME280;48017;51.064;7.014;2022-08-03T06:42:44;100854.53;;;22.92;60.40
62059;BME280;48017;51.064;7.014;2022-08-03T06:45:11;100857.91;;;23.01;60.08
62059;BME280;48017;51.064;7.014;2022-08-03T06:47:37;100853.44;;;22.74;61.18
62059;BME280;48017;51.064;7.014;2022-08-03T06:50:05;100857.72;;;23.09;59.70
62059;BME280;48017;51.064;7.014;2022-08-03T06:52:31;100862.50;;;23.14;59.53
62059;BME280;48017;51.064;7.014;2022-08-03T06:54:57;100864.19;;;23.88;58.16
62059;BME280;48017;51.064;7.014;2022-08-03T06:57:23;100862.00;;;24.81;55.03
62059;BME280;48017;51.064;7.014;2022-08-03T06:59:49;100860.94;;;25.51;52.19
62059;BME280;48017;51.064;7.014;2022-08-03T07:02:14;100868.59;;;24.98;53.46
62059;BME280;48017;51.064;7.014;2022-08-03T07:04:39;100864.75;;;26.37;50.39
62059;BME280;48017;51.064;7.014;2022-08-03T07:07:05;100857.34;;;25.82;50.57
62059;BME280;48017;51.064;7.014;2022-08-03T07:09:30;100862.13;;;25.31;51.57
62059;BME280;48017;51.064;7.014;2022-08-03T07:11:56;100864.63;;;25.32;52.70
62059;BME280;48017;51.064;7.014;2022-08-03T07:14:21;100863.31;;;27.24;48.01
62059;BME280;48017;51.064;7.014;2022-08-03T07:16:47;100861.59;;;26.70;47.82
62059;BME280;48017;51.064;7.014;2022-08-03T07:19:12;100872.72;;;27.40;46.68
62059;BME280;48017;51.064;7.014;2022-08-03T07:21:38;100868.59;;;27.61;45.87
62059;BME280;48017;51.064;7.014;2022-08-03T07:24:03;100873.75;;;28.96;42.80
62059;BME280;48017;51.064;7.014;2022-08-03T07:26:29;100876.81;;;27.96;44.45
62059;BME280;48017;51.064;7.014;2022-08-03T07:28:54;100877.16;;;26.45;48.21
62059;BME280;48017;51.064;7.014;2022-08-03T07:31:20;100870.47;;;26.47;47.79
62059;BME280;48017;51.064;7.014;2022-08-03T07:33:45;100877.66;;;26.72;47.43
62059;BME280;48017;51.064;7.014;2022-08-03T07:36:11;100873.94;;;28.38;44.46
62059;BME280;48017;51.064;7.014;2022-08-03T07:38:36;100872.09;;;29.58;41.02
62059;BME280;48017;51.064;7.014;2022-08-03T07:41:02;100875.81;;;27.44;45.79
62059;BME280;48017;51.064;7.014;2022-08-03T07:43:28;100873.16;;;29.23;42.66
62059;BME280;48017;51.064;7.014;2022-08-03T07:45:54;100874.94;;;27.32;46.20
62059;BME280;48017;51.064;7.014;2022-08-03T07:48:19;100869.22;;;27.87;44.96
62059;BME280;48017;51.064;7.014;2022-08-03T07:50:45;100872.00;;;27.45;45.63
62059;BME280;48017;51.064;7.014;2022-08-03T07:53:11;100877.78;;;29.39;41.52
62059;BME280;48017;51.064;7.014;2022-08-03T07:55:36;100877.53;;;28.67;42.23
62059;BME280;48017;51.064;7.014;2022-08-03T08:00:30;100868.97;;;27.88;44.39
62059;BME280;48017;51.064;7.014;2022-08-03T08:02:55;100861.78;;;29.14;41.64
62059;BME280;48017;51.064;7.014;2022-08-03T08:05:21;100864.81;;;28.21;43.60
62059;BME280;48017;51.064;7.014;2022-08-03T08:07:46;100865.06;;;27.49;44.68
62059;BME280;48017;51.064;7.014;2022-08-03T08:10:12;100861.78;;;27.70;45.38
62059;BME280;48017;51.064;7.014;2022-08-03T08:12:38;100862.72;;;28.91;43.15
62059;BME280;48017;51.064;7.014;2022-08-03T08:15:04;100866.09;;;28.42;43.79
62059;BME280;48017;51.064;7.014;2022-08-03T08:17:30;100859.94;;;27.41;45.08
62059;BME280;48017;51.064;7.014;2022-08-03T08:19:55;100864.69;;;28.16;43.86
62059;BME280;48017;51.064;7.014;2022-08-03T08:22:21;100861.72;;;27.47;44.71
62059;BME280;48017;51.064;7.014;2022-08-03T08:24:46;100865.16;;;28.36;43.43
62059;BME280;48017;51.064;7.014;2022-08-03T08:27:13;100867.53;;;28.44;43.19
62059;BME280;48017;51.064;7.014;2022-08-03T08:29:39;100866.72;;;27.97;43.65
62059;BME280;48017;51.064;7.014;2022-08-03T08:32:04;100863.31;;;28.01;43.90
62059;BME280;48017;51.064;7.014;2022-08-03T08:34:30;100853.59;;;27.82;44.02
62059;BME280;48017;51.064;7.014;2022-08-03T08:36:55;100867.78;;;28.07;43.33
62059;BME280;48017;51.064;7.014;2022-08-03T08:39:21;100858.31;;;27.98;44.26
62059;BME280;48017;51.064;7.014;2022-08-03T08:41:50;100862.28;;;29.11;41.97
62059;BME280;48017;51.064;7.014;2022-08-03T08:44:15;100874.22;;;29.39;40.61
62059;BME280;48017;51.064;7.014;2022-08-03T08:46:41;100854.22;;;28.48;42.22
62059;BME280;48017;51.064;7.014;2022-08-03T08:49:08;100859.84;;;28.06;43.25
62059;BME280;48017;51.064;7.014;2022-08-03T08:51:34;100858.53;;;28.32;42.63
62059;BME280;48017;51.064;7.014;2022-08-03T08:54:02;100860.28;;;28.78;41.74
62059;BME280;48017;51.064;7.014;2022-08-03T08:56:29;100860.91;;;28.28;42.14
62059;BME280;48017;51.064;7.014;2022-08-03T08:58:58;100863.59;;;28.52;42.04
62059;BME280;48017;51.064;7.014;2022-08-03T09:01:24;100868.47;;;28.38;42.12
62059;BME280;48017;51.064;7.014;2022-08-03T09:03:50;100866.72;;;29.01;41.12
62059;BME280;48017;51.064;7.014;2022-08-03T09:06:17;100862.56;;;28.41;42.18
62059;BME280;48017;51.064;7.014;2022-08-03T09:08:43;100859.56;;;28.83;40.58
62059;BME280;48017;51.064;7.014;2022-08-03T09:11:08;100864.66;;;28.79;41.21
62059;BME280;48017;51.064;7.014;2022-08-03T09:13:34;100864.59;;;29.19;39.82
62059;BME280;48017;51.064;7.014;2022-08-03T09:18:39;100862.19;;;29.06;39.54
62059;BME280;48017;51.064;7.014;2022-08-03T09:23:53;100866.63;;;29.58;38.71
62059;BME280;48017;51.064;7.014;2022-08-03T09:26:23;100870.34;;;29.35;39.41
62059;BME280;48017;51.064;7.014;2022-08-03T09:31:35;100859.13;;;29.03;39.94
62059;BME280;48017;51.064;7.014;2022-08-03T09:34:06;100856.28;;;29.60;38.85
62059;BME280;48017;51.064;7.014;2022-08-03T09:36:40;100854.69;;;29.80;39.25
62059;BME280;48017;51.064;7.014;2022-08-03T09:39:08;100858.09;;;29.71;38.35
62059;BME280;48017;51.064;7.014;2022-08-03T09:41:39;100860.84;;;29.54;39.20
62059;BME280;48017;51.064;7.014;2022-08-03T09:44:05;100844.97;;;28.77;40.25
62059;BME280;48017;51.064;7.014;2022-08-03T09:46:30;100853.06;;;29.01;40.12
62059;BME280;48017;51.064;7.014;2022-08-03T09:49:11;100849.91;;;29.71;38.67
62059;BME280;48017;51.064;7.014;2022-08-03T09:51:37;100843.94;;;29.74;38.49
62059;BME280;48017;51.064;7.014;2022-08-03T09:54:02;100852.13;;;29.23;39.15
62059;BME280;48017;51.064;7.014;2022-08-03T09:56:46;100857.22;;;29.48;38.29
62059;BME280;48017;51.064;7.014;2022-08-03T09:59:24;100843.47;;;30.37;37.81
62059;BME280;48017;51.064;7.014;2022-08-03T10:01:50;100845.94;;;30.00;38.17
62059;BME280;48017;51.064;7.014;2022-08-03T10:04:15;100847.41;;;29.69;38.31
62059;BME280;48017;51.064;7.014;2022-08-03T10:06:45;100848.53;;;30.51;37.21
62059;BME280;48017;51.064;7.014;2022-08-03T10:09:25;100842.69;;;30.42;36.37
62059;BME280;48017;51.064;7.014;2022-08-03T10:11:50;100849.06;;;30.48;36.37
62059;BME280;48017;51.064;7.014;2022-08-03T10:14:16;100847.19;;;31.02;35.89
62059;BME280;48017;51.064;7.014;2022-08-03T10:16:46;100841.63;;;30.92;35.20
62059;BME280;48017;51.064;7.014;2022-08-03T10:19:11;100836.59;;;30.84;35.47
62059;BME280;48017;51.064;7.014;2022-08-03T10:21:41;100838.03;;;31.18;35.27
62059;BME280;48017;51.064;7.014;2022-08-03T10:24:08;100835.44;;;30.31;36.37
62059;BME280;48017;51.064;7.014;2022-08-03T10:26:38;100837.00;;;30.05;36.24
62059;BME280;48017;51.064;7.014;2022-08-03T10:29:05;100827.38;;;30.90;34.86
62059;BME280;48017;51.064;7.014;2022-08-03T10:31:39;100826.38;;;30.52;35.72
62059;BME280;48017;51.064;7.014;2022-08-03T10:34:16;100828.56;;;30.99;34.54
62059;BME280;48017;51.064;7.014;2022-08-03T10:36:43;100819.22;;;30.68;35.85
62059;BME280;48017;51.064;7.014;2022-08-03T10:39:11;100820.34;;;30.50;36.21
62059;BME280;48017;51.064;7.014;2022-08-03T10:41:40;100817.53;;;30.94;36.33
62059;BME280;48017;51.064;7.014;2022-08-03T10:44:16;100807.88;;;31.45;35.07
62059;BME280;48017;51.064;7.014;2022-08-03T10:46:43;100800.19;;;31.42;35.00
62059;BME280;48017;51.064;7.014;2022-08-03T10:49:14;100797.44;;;31.79;34.17
62059;BME280;48017;51.064;7.014;2022-08-03T10:51:41;100795.31;;;31.49;34.25
62059;BME280;48017;51.064;7.014;2022-08-03T10:56:59;100796.69;;;31.52;33.51
62059;BME280;48017;51.064;7.014;2022-08-03T11:02:13;100792.31;;;30.87;34.06
62059;BME280;48017;51.064;7.014;2022-08-03T11:04:40;100788.34;;;31.37;33.84
62059;BME280;48017;51.064;7.014;2022-08-03T11:09:48;100780.44;;;31.83;32.88
62059;BME280;48017;51.064;7.014;2022-08-03T11:14:48;100776.75;;;32.14;33.06
62059;BME280;48017;51.064;7.014;2022-08-03T11:17:13;100778.41;;;32.15;33.48
62059;BME280;48017;51.064;7.014;2022-08-03T11:19:46;100785.28;;;31.70;33.98
62059;BME280;48017;51.064;7.014;2022-08-03T11:22:12;100782.28;;;32.24;33.27
62059;BME280;48017;51.064;7.014;2022-08-03T11:24:55;100776.41;;;31.95;33.23
62059;BME280;48017;51.064;7.014;2022-08-03T11:27:34;100779.69;;;32.70;32.46
62059;BME280;48017;51.064;7.014;2022-08-03T11:30:19;100781.81;;;32.48;32.65
62059;BME280;48017;51.064;7.014;2022-08-03T11:32:51;100777.41;;;32.31;31.12
62059;BME280;48017;51.064;7.014;2022-08-03T11:35:18;100770.75;;;32.22;32.06
62059;BME280;48017;51.064;7.014;2022-08-03T11:40:41;100772.91;;;32.15;31.97
62059;BME280;48017;51.064;7.014;2022-08-03T11:46:10;100778.13;;;32.17;31.50
62059;BME280;48017;51.064;7.014;2022-08-03T11:48:43;100772.72;;;32.32;31.81
62059;BME280;48017;51.064;7.014;2022-08-03T11:51:26;100770.03;;;32.67;31.78
62059;BME280;48017;51.064;7.014;2022-08-03T11:56:18;100771.50;;;32.90;31.24
62059;BME280;48017;51.064;7.014;2022-08-03T11:58:51;100775.88;;;32.86;30.89
62059;BME280;48017;51.064;7.014;2022-08-03T12:01:18;100780.28;;;33.23;31.66
62059;BME280;48017;51.064;7.014;2022-08-03T12:03:44;100773.66;;;33.09;30.82
62059;BME280;48017;51.064;7.014;2022-08-03T12:06:15;100764.84;;;32.66;31.98
62059;BME280;48017;51.064;7.014;2022-08-03T12:08:42;100764.06;;;33.21;31.07
62059;BME280;48017;51.064;7.014;2022-08-03T12:11:09;100766.78;;;33.32;30.96
62059;BME280;48017;51.064;7.014;2022-08-03T12:16:04;100764.63;;;32.83;31.12
62059;BME280;48017;51.064;7.014;2022-08-03T12:18:30;100758.28;;;33.18;31.26
62059;BME280;48017;51.064;7.014;2022-08-03T12:21:08;100760.19;;;33.53;30.30
62059;BME280;48017;51.064;7.014;2022-08-03T12:23:34;100761.28;;;33.52;30.23
62059;BME280;48017;51.064;7.014;2022-08-03T12:26:02;100752.66;;;33.84;30.10
62059;BME280;48017;51.064;7.014;2022-08-03T12:28:27;100762.28;;;33.87;29.75
62059;BME280;48017;51.064;7.014;2022-08-03T12:30:53;100752.22;;;33.46;30.42
62059;BME280;48017;51.064;7.014;2022-08-03T12:33:26;100756.63;;;33.32;30.07
62059;BME280;48017;51.064;7.014;2022-08-03T12:38:30;100754.72;;;32.97;30.90
62059;BME280;48017;51.064;7.014;2022-08-03T12:41:10;100755.25;;;33.40;29.88
62059;BME280;48017;51.064;7.014;2022-08-03T12:43:50;100747.88;;;32.84;31.04
62059;BME280;48017;51.064;7.014;2022-08-03T12:46:18;100751.41;;;33.46;30.94
62059;BME280;48017;51.064;7.014;2022-08-03T12:51:36;100744.47;;;33.74;29.72
62059;BME280;48017;51.064;7.014;2022-08-03T12:54:03;100751.66;;;33.55;29.77
62059;BME280;48017;51.064;7.014;2022-08-03T12:56:28;100745.56;;;33.68;30.02
62059;BME280;48017;51.064;7.014;2022-08-03T12:58:54;100743.97;;;33.51;29.75
62059;BME280;48017;51.064;7.014;2022-08-03T13:01:20;100749.72;;;33.55;29.79
62059;BME280;48017;51.064;7.014;2022-08-03T13:03:50;100740.41;;;33.46;29.71
62059;BME280;48017;51.064;7.014;2022-08-03T13:06:20;100736.56;;;32.76;30.50
62059;BME280;48017;51.064;7.014;2022-08-03T13:08:46;100741.81;;;32.98;30.13
62059;BME280;48017;51.064;7.014;2022-08-03T13:11:23;100746.19;;;33.19;30.24
62059;BME280;48017;51.064;7.014;2022-08-03T13:13:50;100734.63;;;33.53;30.19
62059;BME280;48017;51.064;7.014;2022-08-03T13:16:15;100740.34;;;33.66;29.59
62059;BME280;48017;51.064;7.014;2022-08-03T13:18:41;100741.16;;;33.72;29.73
62059;BME280;48017;51.064;7.014;2022-08-03T13:21:06;100736.16;;;33.94;29.23
62059;BME280;48017;51.064;7.014;2022-08-03T13:23:31;100739.88;;;33.08;29.96
62059;BME280;48017;51.064;7.014;2022-08-03T13:25:57;100740.16;;;33.17;30.10
62059;BME280;48017;51.064;7.014;2022-08-03T13:28:22;100737.84;;;33.70;30.44
62059;BME280;48017;51.064;7.014;2022-08-03T13:30:48;100727.09;;;33.84;29.57
62059;BME280;48017;51.064;7.014;2022-08-03T13:33:13;100738.56;;;34.06;28.96
62059;BME280;48017;51.064;7.014;2022-08-03T13:35:38;100733.69;;;33.93;28.57
62059;BME280;48017;51.064;7.014;2022-08-03T13:38:04;100736.00;;;34.25;28.07
62059;BME280;48017;51.064;7.014;2022-08-03T13:40:29;100725.75;;;34.35;28.48
62059;BME280;48017;51.064;7.014;2022-08-03T13:42:56;100724.38;;;34.33;28.39
62059;BME280;48017;51.064;7.014;2022-08-03T13:45:21;100725.16;;;33.94;27.98